Time;durP1;ratioP1;P1;durP2;ratioP2;P2;SDS_P1;SDS_P2;PMS_P1;PMS_P2;Temp;Humidity;BMP_temperature;BMP_pressure;BME280_temperature;BME280_humidity;BME280_pressure;Samples;Min_cycle;Max_cycle;Signal;HPM_P1;HPM_P2
2023/07/30 00:00:39;;;;;;;;;;;;;;;21.61;60.03;100955.66;4099886;29;19922;-58
2023/07/30 00:02:41;;;;;;;;;;;;;;;21.58;60.05;100961.25;4100078;28;19929;-59
2023/07/30 00:04:43;;;;;;;;;;;;;;;21.58;59.68;100966.63;4100310;29;19965;-59
2023/07/30 00:06:44;;;;;;;;;;;;;;;21.57;59.88;100972.06;4099396;29;20016;-59
2023/07/30 00:08:46;;;;;;;;;;;;;;;21.55;60.32;100964.97;4100133;29;19965;-58
2023/07/30 00:10:47;;;;;;;;;;;;;;;21.54;60.06;100962.44;4100037;29;19926;-59
2023/07/30 00:12:49;;;;;;;;;;;;;;;21.53;59.84;100971.41;4100162;29;19929;-59
2023/07/30 00:14:50;;;;;;;;;;;;;;;21.53;60.10;100968.75;4099485;29;19922;-59
2023/07/30 00:16:52;;;;;;;;;;;;;;;21.53;59.99;100971.41;4099292;29;19922;-59
2023/07/30 00:18:53;;;;;;;;;;;;;;;21.52;60.00;100970.56;4099722;29;19964;-59
2023/07/30 00:20:55;;;;;;;;;;;;;;;21.51;59.64;100970.72;4099915;29;19928;-58
2023/07/30 00:22:56;;;;;;;;;;;;;;;21.50;59.80;100974.34;4099592;29;20001;-58
2023/07/30 00:24:58;;;;;;;;;;;;;;;21.48;59.68;100979.84;4099844;28;19957;-58
2023/07/30 00:26:59;;;;;;;;;;;;;;;21.48;59.66;100963.78;4099009;29;19926;-59
2023/07/30 00:29:01;;;;;;;;;;;;;;;21.48;59.53;100970.94;4099401;29;19929;-58
2023/07/30 00:31:02;;;;;;;;;;;;;;;21.46;59.22;100964.84;4099967;28;19929;-58
2023/07/30 00:33:04;;;;;;;;;;;;;;;21.43;59.23;100963.25;4099669;29;19923;-56
2023/07/30 00:35:06;;;;;;;;;;;;;;;21.43;59.45;100960.59;4099896;29;20017;-56
2023/07/30 00:37:08;;;;;;;;;;;;;;;21.40;59.60;100960.84;4099569;29;19946;-57
2023/07/30 00:39:11;;;;;;;;;;;;;;;21.41;59.48;100959.88;4099961;29;20017;-56
2023/07/30 00:41:12;;;;;;;;;;;;;;;21.41;59.61;100964.34;4100041;29;20285;-57
2023/07/30 00:43:14;;;;;;;;;;;;;;;21.40;59.19;100963.50;4099351;29;20305;-57
2023/07/30 00:45:15;;;;;;;;;;;;;;;21.40;59.22;100968.88;4099926;29;20009;-57
2023/07/30 00:47:17;;;;;;;;;;;;;;;21.41;59.27;100972.38;4099095;29;19930;-57
2023/07/30 00:49:18;;;;;;;;;;;;;;;21.41;58.98;100977.72;4099708;29;19922;-57
2023/07/30 00:51:20;;;;;;;;;;;;;;;21.38;59.23;100978.81;4099821;29;19930;-57
2023/07/30 00:53:23;;;;;;;;;;;;;;;21.38;59.16;100978.81;4099814;29;19922;-56
2023/07/30 00:55:25;;;;;;;;;;;;;;;21.37;59.40;100985.13;4099940;29;20025;-56
2023/07/30 00:57:26;;;;;;;;;;;;;;;21.36;59.08;100986.09;4098768;29;19929;-56
2023/07/30 00:59:28;;;;;;;;;;;;;;;21.36;59.25;100991.47;4099683;29;19923;-56
2023/07/30 01:01:33;;;;;;;;;;;;;;;21.35;59.11;100993.28;4099806;29;20372;-56
2023/07/30 01:03:34;;;;;;;;;;;;;;;21.35;59.30;101000.44;4099865;29;19922;-57
2023/07/30 01:05:36;;;;;;;;;;;;;;;21.36;59.31;101002.16;4099661;29;20476;-57
2023/07/30 01:07:37;;;;;;;;;;;;;;;21.33;59.31;101000.56;4098949;29;20013;-56
2023/07/30 01:09:39;;;;;;;;;;;;;;;21.32;59.15;101008.72;4099679;29;20299;-57
2023/07/30 01:11:41;;;;;;;;;;;;;;;21.33;59.11;101010.44;4099401;29;19923;-57
2023/07/30 01:13:43;;;;;;;;;;;;;;;21.31;59.44;101010.56;4099680;29;19926;-56
2023/07/30 01:15:49;;;;;;;;;;;;;;;21.32;59.12;101001.53;4101742;28;19930;-57
2023/07/30 01:17:50;;;;;;;;;;;;;;;21.29;58.70;101012.50;4102052;29;20366;-57
2023/07/30 01:19:54;;;;;;;;;;;;;;;21.29;59.11;101016.97;4102615;29;20017;-57
2023/07/30 01:21:56;;;;;;;;;;;;;;;21.27;59.06;101030.47;4102628;29;19961;-57
2023/07/30 01:23:57;;;;;;;;;;;;;;;21.25;58.75;101019.03;4102361;28;19937;-57
2023/07/30 01:26:02;;;;;;;;;;;;;;;21.26;59.12;101019.91;4102551;29;20364;-57
2023/07/30 01:28:05;;;;;;;;;;;;;;;21.26;59.43;101026.09;4102116;29;19944;-57
2023/07/30 01:30:18;;;;;;;;;;;;;;;21.28;59.10;101028.66;4102493;29;20409;-57
2023/07/30 01:32:24;;;;;;;;;;;;;;;21.26;59.11;101031.44;4102320;29;19969;-57
2023/07/30 01:34:26;;;;;;;;;;;;;;;21.25;59.20;101037.75;4102447;29;20309;-56
2023/07/30 01:36:28;;;;;;;;;;;;;;;21.25;59.14;101036.91;4101828;29;19944;-57
2023/07/30 01:38:30;;;;;;;;;;;;;;;21.22;58.98;101041.53;4102322;29;19981;-57
2023/07/30 01:40:32;;;;;;;;;;;;;;;21.21;59.32;101050.50;4101828;29;19923;-57
2023/07/30 01:42:34;;;;;;;;;;;;;;;21.18;58.98;101048.09;4102338;29;19922;-56
2023/07/30 01:44:35;;;;;;;;;;;;;;;21.20;59.29;101047.97;4101195;29;19944;-56
2023/07/30 01:46:37;;;;;;;;;;;;;;;21.20;58.84;101047.97;4101828;29;19957;-57
2023/07/30 01:48:39;;;;;;;;;;;;;;;21.19;59.05;101049.78;4085142;29;19962;-56
2023/07/30 01:50:40;;;;;;;;;;;;;;;21.10;58.54;101041.63;4102361;29;19934;-56
2023/07/30 01:52:42;;;;;;;;;;;;;;;21.17;59.00;101054.41;4102168;29;19926;-57
2023/07/30 01:54:43;;;;;;;;;;;;;;;21.18;58.83;101049.88;4102268;29;19922;-57
2023/07/30 01:56:45;;;;;;;;;;;;;;;21.18;59.06;101061.44;4101235;29;19922;-55
2023/07/30 01:58:46;;;;;;;;;;;;;;;21.16;59.27;101058.03;4102085;28;20013;-57
2023/07/30 02:00:48;;;;;;;;;;;;;;;21.17;59.19;101057.06;4102094;29;20013;-56
2023/07/30 02:02:49;;;;;;;;;;;;;;;21.18;59.22;101063.25;4102135;29;19962;-56
2023/07/30 02:04:51;;;;;;;;;;;;;;;21.15;59.00;101061.66;4102100;29;20391;-56
2023/07/30 02:06:53;;;;;;;;;;;;;;;21.15;58.96;101056.31;4101386;29;19927;-57
2023/07/30 02:08:54;;;;;;;;;;;;;;;21.15;58.77;101066.19;4084875;29;19929;-56
2023/07/30 02:10:59;;;;;;;;;;;;;;;21.11;58.62;101062.03;4101817;29;19929;-54
2023/07/30 02:13:00;;;;;;;;;;;;;;;21.12;59.09;101064.59;4102162;29;19946;-55
2023/07/30 02:15:02;;;;;;;;;;;;;;;21.13;58.99;101070.78;4101708;29;20021;-55
2023/07/30 02:17:04;;;;;;;;;;;;;;;21.13;58.80;101079.69;4101153;29;19970;-55
2023/07/30 02:19:05;;;;;;;;;;;;;;;21.11;59.15;101075.41;4102059;29;20374;-54
2023/07/30 02:21:07;;;;;;;;;;;;;;;21.10;58.95;101079.88;4101891;29;19922;-53
2023/07/30 02:23:08;;;;;;;;;;;;;;;21.09;58.85;101080.00;4101711;29;20289;-56
2023/07/30 02:25:10;;;;;;;;;;;;;;;21.08;58.59;101083.66;4101131;28;19929;-57
2023/07/30 02:27:11;;;;;;;;;;;;;;;21.05;58.82;101085.56;4099919;28;19927;-57
2023/07/30 02:29:13;;;;;;;;;;;;;;;21.05;58.75;101082.91;4101692;29;20381;-56
2023/07/30 02:31:14;;;;;;;;;;;;;;;21.04;58.89;101086.53;4101472;29;19922;-57
2023/07/30 02:33:16;;;;;;;;;;;;;;;21.04;58.71;101086.53;4101437;29;19953;-57
2023/07/30 02:35:17;;;;;;;;;;;;;;;21.03;58.99;101090.22;4101792;29;19928;-57
2023/07/30 02:37:19;;;;;;;;;;;;;;;21.02;58.76;101092.97;4101093;29;19950;-56
2023/07/30 02:39:21;;;;;;;;;;;;;;;21.01;58.83;101089.47;4101157;29;19922;-55
2023/07/30 02:41:22;;;;;;;;;;;;;;;21.00;58.47;101092.25;4101564;29;20449;-57
2023/07/30 02:43:23;;;;;;;;;;;;;;;20.99;58.86;101104.75;4101325;29;20267;-57
2023/07/30 02:45:25;;;;;;;;;;;;;;;20.97;58.62;101098.66;4101391;29;19977;-56
2023/07/30 02:47:27;;;;;;;;;;;;;;;20.96;58.56;101094.31;4100515;29;19922;-56
2023/07/30 02:49:29;;;;;;;;;;;;;;;20.96;58.74;101098.78;4101263;29;19926;-56
2023/07/30 02:51:30;;;;;;;;;;;;;;;20.95;58.14;101089.91;4101375;29;20421;-57
2023/07/30 02:53:32;;;;;;;;;;;;;;;20.93;58.31;101091.00;4101076;29;19933;-57
2023/07/30 02:55:33;;;;;;;;;;;;;;;20.92;58.88;101091.97;4101242;29;20006;-57
2023/07/30 02:57:35;;;;;;;;;;;;;;;20.90;58.58;101086.72;4100586;29;19929;-57
2023/07/30 02:59:37;;;;;;;;;;;;;;;20.90;58.41;101086.72;4084294;29;20010;-56
2023/07/30 03:01:38;;;;;;;;;;;;;;;20.90;58.08;101081.38;4101010;29;19922;-57
2023/07/30 03:03:41;;;;;;;;;;;;;;;20.89;58.67;101088.53;4100891;29;19922;-55
2023/07/30 03:05:42;;;;;;;;;;;;;;;20.89;58.46;101093.88;4101040;29;20341;-57
2023/07/30 03:07:44;;;;;;;;;;;;;;;20.90;58.32;101087.56;4099922;29;19929;-56
2023/07/30 03:09:46;;;;;;;;;;;;;;;20.89;58.70;101088.53;4101105;29;19922;-56
2023/07/30 03:11:47;;;;;;;;;;;;;;;20.88;58.36;101089.50;4101116;29;19922;-56
2023/07/30 03:13:49;;;;;;;;;;;;;;;20.87;58.20;101089.63;4100991;29;20278;-56
2023/07/30 03:15:50;;;;;;;;;;;;;;;20.84;58.44;101090.69;4100896;29;20305;-57
2023/07/30 03:17:52;;;;;;;;;;;;;;;20.82;58.26;101083.75;4100369;29;19932;-57
2023/07/30 03:19:53;;;;;;;;;;;;;;;20.81;58.50;101088.22;4100802;29;20353;-57
2023/07/30 03:21:55;;;;;;;;;;;;;;;20.81;58.61;101095.41;4100745;29;19973;-57
2023/07/30 03:23:56;;;;;;;;;;;;;;;20.80;58.45;101091.03;4100191;28;19922;-57
2023/07/30 03:26:00;;;;;;;;;;;;;;;20.80;58.50;101085.69;4083743;29;19923;-56
2023/07/30 03:28:01;;;;;;;;;;;;;;;20.79;58.49;101090.19;4100043;29;20309;-56
2023/07/30 03:30:04;;;;;;;;;;;;;;;20.75;58.35;101088.69;4100761;29;20440;-58
2023/07/30 03:32:06;;;;;;;;;;;;;;;20.74;58.58;101095.88;4099386;29;19961;-56
2023/07/30 03:34:07;;;;;;;;;;;;;;;20.73;58.52;101099.50;4100563;29;19923;-57
2023/07/30 03:36:13;;;;;;;;;;;;;;;20.74;58.26;101098.53;4100532;29;20009;-57
2023/07/30 03:38:14;;;;;;;;;;;;;;;20.72;58.57;101103.13;4099352;28;19933;-57
2023/07/30 03:40:16;;;;;;;;;;;;;;;20.72;58.40;101099.63;4100535;29;19950;-57
2023/07/30 03:42:17;;;;;;;;;;;;;;;20.69;58.65;101103.34;4100470;29;19929;-57
2023/07/30 03:44:18;;;;;;;;;;;;;;;20.70;58.35;101107.69;4100202;29;20278;-57
2023/07/30 03:46:20;;;;;;;;;;;;;;;20.71;58.32;101113.91;4100398;29;19960;-57
2023/07/30 03:48:22;;;;;;;;;;;;;;;20.72;58.53;101111.16;4099842;29;19989;-57
2023/07/30 03:50:23;;;;;;;;;;;;;;;20.71;58.09;101106.72;4099329;29;19923;-56
2023/07/30 03:52:25;;;;;;;;;;;;;;;20.72;58.44;101112.97;4100120;29;20009;-54
2023/07/30 03:54:26;;;;;;;;;;;;;;;20.72;58.30;101121.84;4100406;29;19985;-55
2023/07/30 03:56:28;;;;;;;;;;;;;;;20.71;58.31;101109.41;4099971;29;19928;-55
2023/07/30 03:58:30;;;;;;;;;;;;;;;20.71;58.37;101111.25;4099651;29;20009;-55
2023/07/30 04:00:32;;;;;;;;;;;;;;;20.70;58.62;101114.88;4100391;29;20014;-56
2023/07/30 04:02:34;;;;;;;;;;;;;;;20.71;58.13;101117.44;4100381;29;19929;-57
2023/07/30 04:04:35;;;;;;;;;;;;;;;20.69;58.46;101123.84;4100276;29;20386;-56
2023/07/30 04:06:37;;;;;;;;;;;;;;;20.70;58.09;101122.88;4100042;29;19929;-57
2023/07/30 04:08:38;;;;;;;;;;;;;;;20.70;58.20;101129.06;4099595;28;19930;-57
2023/07/30 04:10:40;;;;;;;;;;;;;;;20.69;58.23;101132.75;4100254;29;19926;-56
2023/07/30 04:12:41;;;;;;;;;;;;;;;20.68;58.28;101124.81;4100252;29;20033;-56
2023/07/30 04:14:43;;;;;;;;;;;;;;;20.68;58.47;101131.03;4100109;28;20370;-56
2023/07/30 04:16:46;;;;;;;;;;;;;;;20.68;58.04;101130.16;4099610;29;20360;-57
2023/07/30 04:18:48;;;;;;;;;;;;;;;20.69;58.25;101137.22;4099976;29;20298;-56
2023/07/30 04:20:50;;;;;;;;;;;;;;;20.68;58.02;101135.50;4099910;29;19976;-56
2023/07/30 04:22:51;;;;;;;;;;;;;;;20.67;58.20;101137.34;4099877;29;19926;-56
2023/07/30 04:24:53;;;;;;;;;;;;;;;20.67;58.20;101140.00;4083016;29;19978;-56
2023/07/30 04:26:55;;;;;;;;;;;;;;;20.65;58.12;101138.41;4099556;29;19922;-56
2023/07/30 04:28:56;;;;;;;;;;;;;;;20.65;58.33;101141.91;4099760;29;19958;-56
2023/07/30 04:30:58;;;;;;;;;;;;;;;20.64;58.34;101140.22;4099856;29;19922;-55
2023/07/30 04:32:59;;;;;;;;;;;;;;;20.65;58.01;101143.75;4099771;29;19923;-54
2023/07/30 04:35:02;;;;;;;;;;;;;;;20.63;58.37;101145.66;4099632;29;19926;-55
2023/07/30 04:37:04;;;;;;;;;;;;;;;20.61;58.49;101148.47;4099400;29;19929;-55
2023/07/30 04:39:06;;;;;;;;;;;;;;;20.62;58.40;101146.63;4099969;29;20002;-56
2023/07/30 04:41:07;;;;;;;;;;;;;;;20.63;58.08;101151.03;4099989;28;19923;-53
2023/07/30 04:43:09;;;;;;;;;;;;;;;20.63;58.17;101151.03;4100083;29;19923;-53
2023/07/30 04:45:10;;;;;;;;;;;;;;;20.62;58.12;101162.66;4099869;29;20021;-55
2023/07/30 04:47:12;;;;;;;;;;;;;;;20.59;58.23;101167.25;4099124;29;19989;-56
2023/07/30 04:49:13;;;;;;;;;;;;;;;20.61;58.29;101171.63;4099530;28;19949;-57
2023/07/30 04:51:15;;;;;;;;;;;;;;;20.59;58.08;101166.41;4102860;29;19922;-57
2023/07/30 04:53:18;;;;;;;;;;;;;;;20.59;58.33;101167.25;4103184;29;19923;-57
2023/07/30 04:55:19;;;;;;;;;;;;;;;20.60;58.29;101170.81;4103135;29;20021;-57
2023/07/30 04:57:21;;;;;;;;;;;;;;;20.60;58.00;101176.16;4102429;29;19994;-57
2023/07/30 04:59:22;;;;;;;;;;;;;;;20.61;57.99;101182.34;4103188;29;20029;-56
2023/07/30 05:01:24;;;;;;;;;;;;;;;20.58;58.21;101176.25;4101911;29;19945;-57
2023/07/30 05:03:26;;;;;;;;;;;;;;;20.59;57.90;101188.63;4102931;29;20360;-57
2023/07/30 05:05:27;;;;;;;;;;;;;;;20.57;58.19;101187.03;4102538;29;20009;-57
2023/07/30 05:07:29;;;;;;;;;;;;;;;20.55;58.56;101183.63;4102093;29;19937;-57
2023/07/30 05:09:30;;;;;;;;;;;;;;;20.55;58.04;101189.81;4102734;29;19922;-57
2023/07/30 05:11:32;;;;;;;;;;;;;;;20.56;58.37;101193.34;4101729;29;19923;-57
2023/07/30 05:13:34;;;;;;;;;;;;;;;20.56;58.16;101202.22;4102772;29;19984;-57
2023/07/30 05:15:35;;;;;;;;;;;;;;;20.52;58.38;101194.53;4102526;29;19946;-57
2023/07/30 05:17:37;;;;;;;;;;;;;;;20.52;58.06;101203.41;4101990;29;19922;-57
2023/07/30 05:19:38;;;;;;;;;;;;;;;20.54;58.21;101204.16;4102328;29;20025;-57
2023/07/30 05:21:40;;;;;;;;;;;;;;;20.55;57.81;101202.34;4102566;29;19922;-57
2023/07/30 05:23:42;;;;;;;;;;;;;;;20.55;58.31;101202.34;4102658;29;19926;-57
2023/07/30 05:25:43;;;;;;;;;;;;;;;20.55;58.29;101210.38;4102587;28;19923;-57
2023/07/30 05:27:45;;;;;;;;;;;;;;;20.51;58.22;101208.84;4101808;29;19977;-57
2023/07/30 05:29:46;;;;;;;;;;;;;;;20.53;58.35;101207.78;4102622;29;20362;-57
2023/07/30 05:31:50;;;;;;;;;;;;;;;20.53;58.22;101205.09;4102666;29;19992;-57
2023/07/30 05:33:51;;;;;;;;;;;;;;;20.52;57.95;101205.22;4102111;29;20163;-56
2023/07/30 05:35:53;;;;;;;;;;;;;;;20.52;58.22;101206.09;4102463;29;20013;-56
2023/07/30 05:37:54;;;;;;;;;;;;;;;20.52;57.99;101200.75;4101824;29;19969;-57
2023/07/30 05:39:56;;;;;;;;;;;;;;;20.51;58.23;101195.50;4102232;29;19929;-55
2023/07/30 05:41:57;;;;;;;;;;;;;;;20.50;58.17;101208.00;4102419;29;19968;-55
2023/07/30 05:43:59;;;;;;;;;;;;;;;20.51;57.96;101209.72;4102341;29;19930;-56
2023/07/30 05:46:00;;;;;;;;;;;;;;;20.50;58.20;101208.00;4102303;29;19945;-57
2023/07/30 05:48:02;;;;;;;;;;;;;;;20.49;58.12;101210.78;4100165;29;19922;-57
2023/07/30 05:50:04;;;;;;;;;;;;;;;20.49;57.94;101205.44;4102528;29;20390;-57
2023/07/30 05:52:06;;;;;;;;;;;;;;;20.47;58.03;101202.88;4102396;29;19922;-57
2023/07/30 05:54:07;;;;;;;;;;;;;;;20.44;58.09;101205.75;4102568;29;19929;-57
2023/07/30 05:56:09;;;;;;;;;;;;;;;20.45;57.97;101207.47;4102222;29;19965;-57
2023/07/30 05:58:10;;;;;;;;;;;;;;;20.46;58.18;101197.63;4101431;29;19922;-56
2023/07/30 06:00:12;;;;;;;;;;;;;;;20.45;58.04;101210.16;4102401;29;20378;-57
2023/07/30 06:02:13;;;;;;;;;;;;;;;20.44;58.27;101208.44;4101749;28;19930;-57
2023/07/30 06:04:15;;;;;;;;;;;;;;;20.42;57.77;101208.53;4101998;29;19956;-56
2023/07/30 06:06:16;;;;;;;;;;;;;;;20.42;57.96;101210.34;4102102;28;19977;-57
2023/07/30 06:08:18;;;;;;;;;;;;;;;20.40;58.09;101207.78;4101250;29;19922;-57
2023/07/30 06:10:19;;;;;;;;;;;;;;;20.39;58.01;101211.41;4101917;29;20297;-57
2023/07/30 06:12:21;;;;;;;;;;;;;;;20.37;58.14;101217.84;4101934;29;19929;-56
2023/07/30 06:14:23;;;;;;;;;;;;;;;20.38;57.93;101215.06;4102182;29;19938;-57
2023/07/30 06:16:24;;;;;;;;;;;;;;;20.41;58.02;101224.66;4101336;29;19957;-56
2023/07/30 06:18:26;;;;;;;;;;;;;;;20.40;57.62;101218.47;4101213;29;19922;-57
2023/07/30 06:20:28;;;;;;;;;;;;;;;20.40;57.56;101217.59;4101946;29;20009;-57
2023/07/30 06:22:29;;;;;;;;;;;;;;;20.38;57.71;101223.06;4101608;29;20362;-57
2023/07/30 06:24:31;;;;;;;;;;;;;;;20.38;57.64;101214.22;4101717;28;20283;-57
2023/07/30 06:26:36;;;;;;;;;;;;;;;20.35;57.74;101227.75;4101717;29;19954;-57
2023/07/30 06:28:37;;;;;;;;;;;;;;;20.37;57.88;101233.88;4100157;29;19922;-57
2023/07/30 06:30:39;;;;;;;;;;;;;;;20.37;58.10;101229.38;4101376;29;19926;-57
2023/07/30 06:32:41;;;;;;;;;;;;;;;20.37;57.74;101242.72;4101575;29;19922;-57
2023/07/30 06:34:42;;;;;;;;;;;;;;;20.36;57.71;101240.16;4101821;29;19922;-57
2023/07/30 06:36:44;;;;;;;;;;;;;;;20.38;57.75;101251.59;4101417;29;19926;-57
2023/07/30 06:38:46;;;;;;;;;;;;;;;20.36;57.65;101248.19;4100975;29;19929;-57
2023/07/30 06:40:47;;;;;;;;;;;;;;;20.36;57.93;101253.53;4101643;29;19965;-57
2023/07/30 06:42:48;;;;;;;;;;;;;;;20.37;57.64;101255.25;4101323;29;19954;-57
2023/07/30 06:44:50;;;;;;;;;;;;;;;20.38;57.44;101255.13;4101328;29;20008;-57
2023/07/30 06:46:52;;;;;;;;;;;;;;;20.37;57.71;101255.25;4101012;29;19961;-57
2023/07/30 06:48:53;;;;;;;;;;;;;;;20.36;57.53;101259.72;4100800;29;19973;-56
2023/07/30 06:50:55;;;;;;;;;;;;;;;20.36;57.59;101253.53;4101245;29;19934;-57
2023/07/30 06:52:56;;;;;;;;;;;;;;;20.37;57.84;101266.75;4100414;29;19922;-57
2023/07/30 06:54:58;;;;;;;;;;;;;;;20.36;57.50;101257.03;4101146;29;19922;-57
2023/07/30 06:56:59;;;;;;;;;;;;;;;20.37;57.94;101257.91;4101142;29;19926;-57
2023/07/30 06:59:01;;;;;;;;;;;;;;;20.36;57.32;101265.06;4099402;29;20289;-57
2023/07/30 07:01:03;;;;;;;;;;;;;;;20.34;57.72;101258.97;4100854;29;20017;-57
2023/07/30 07:03:04;;;;;;;;;;;;;;;20.35;57.69;101266.03;4101051;29;19927;-57
2023/07/30 07:05:06;;;;;;;;;;;;;;;20.37;57.02;101265.94;4101360;29;19922;-57
2023/07/30 07:07:08;;;;;;;;;;;;;;;20.37;57.28;101252.56;4084188;29;20120;-57
2023/07/30 07:09:09;;;;;;;;;;;;;;;20.37;57.46;101255.25;4100165;29;19929;-57
2023/07/30 07:11:11;;;;;;;;;;;;;;;20.38;57.30;101255.13;4101337;29;20025;-57
2023/07/30 07:13:15;;;;;;;;;;;;;;;20.37;57.26;101263.25;4100202;28;19922;-57
2023/07/30 07:15:16;;;;;;;;;;;;;;;20.36;57.42;101270.38;4100362;29;19922;-57
2023/07/30 07:17:18;;;;;;;;;;;;;;;20.38;56.99;101260.47;4100711;29;19950;-57
2023/07/30 07:19:19;;;;;;;;;;;;;;;20.38;57.27;101262.28;4100399;29;19923;-57
2023/07/30 07:21:21;;;;;;;;;;;;;;;20.37;57.20;101269.44;4100915;29;20009;-57
2023/07/30 07:23:22;;;;;;;;;;;;;;;20.38;57.03;101267.63;4100579;29;19923;-56
2023/07/30 07:25:24;;;;;;;;;;;;;;;20.40;57.17;101276.38;4100781;28;20317;-57
2023/07/30 07:27:26;;;;;;;;;;;;;;;20.40;57.24;101273.72;4100227;29;19928;-57
2023/07/30 07:29:28;;;;;;;;;;;;;;;20.39;57.11;101270.19;4100109;29;19965;-56
2023/07/30 07:31:29;;;;;;;;;;;;;;;20.41;56.97;101272.75;4100824;29;19930;-57
2023/07/30 07:33:31;;;;;;;;;;;;;;;20.43;56.68;101279.69;4083757;29;19929;-57
2023/07/30 07:35:32;;;;;;;;;;;;;;;20.42;56.60;101272.63;4083834;29;20017;-57
2023/07/30 07:37:34;;;;;;;;;;;;;;;20.43;56.53;101277.03;4100127;29;19932;-56
2023/07/30 07:39:35;;;;;;;;;;;;;;;20.43;56.75;101284.19;4100564;29;20028;-56
2023/07/30 07:41:37;;;;;;;;;;;;;;;20.41;56.98;101286.13;4100761;29;19928;-56
2023/07/30 07:43:39;;;;;;;;;;;;;;;20.42;56.58;101285.16;4100151;29;19922;-56
2023/07/30 07:45:40;;;;;;;;;;;;;;;20.41;56.44;101286.13;4100644;29;19922;-56
2023/07/30 07:47:42;;;;;;;;;;;;;;;20.39;56.98;101291.56;4099992;29;19998;-56
2023/07/30 07:49:43;;;;;;;;;;;;;;;20.39;56.97;101298.72;4100403;29;19929;-56
2023/07/30 07:51:45;;;;;;;;;;;;;;;20.40;56.70;101295.09;4100182;29;19966;-54
2023/07/30 07:53:47;;;;;;;;;;;;;;;20.42;56.64;101290.50;4100334;29;20373;-54
2023/07/30 07:55:48;;;;;;;;;;;;;;;20.43;56.76;101286.88;4100454;28;19927;-56
2023/07/30 07:57:50;;;;;;;;;;;;;;;20.44;56.72;101288.59;4099484;29;20009;-56
2023/07/30 07:59:51;;;;;;;;;;;;;;;20.43;56.67;101289.53;4100160;29;19937;-57
2023/07/30 08:01:53;;;;;;;;;;;;;;;20.41;56.57;101300.34;4100443;29;20291;-56
2023/07/30 08:03:55;;;;;;;;;;;;;;;20.41;56.46;101308.34;4100299;29;19922;-56
2023/07/30 08:05:56;;;;;;;;;;;;;;;20.41;56.82;101307.47;4083342;29;20313;-56
2023/07/30 08:07:58;;;;;;;;;;;;;;;20.40;56.11;101316.47;4099665;29;19922;-56
2023/07/30 08:10:00;;;;;;;;;;;;;;;20.40;56.58;101324.47;4100168;29;20158;-56
2023/07/30 08:12:01;;;;;;;;;;;;;;;20.40;56.73;101313.78;4099885;29;20298;-57
2023/07/30 08:14:03;;;;;;;;;;;;;;;20.39;56.34;101310.28;4099968;29;20009;-56
2023/07/30 08:16:04;;;;;;;;;;;;;;;20.41;56.49;101312.81;4100186;29;19923;-56
2023/07/30 08:18:06;;;;;;;;;;;;;;;20.43;56.11;101310.91;4099509;29;19926;-56
2023/07/30 08:20:07;;;;;;;;;;;;;;;20.42;56.08;101306.53;4100147;29;20345;-57
2023/07/30 08:22:09;;;;;;;;;;;;;;;20.48;56.02;101302.59;4099907;29;19953;-56
2023/07/30 08:24:10;;;;;;;;;;;;;;;20.49;56.07;101313.16;4099360;28;19954;-57
2023/07/30 08:26:12;;;;;;;;;;;;;;;20.51;56.08;101308.59;4083073;29;19922;-56
2023/07/30 08:28:14;;;;;;;;;;;;;;;20.52;55.51;101312.97;4099252;29;19973;-57
2023/07/30 08:30:15;;;;;;;;;;;;;;;20.56;56.34;101305.56;4099988;29;19934;-56
2023/07/30 08:32:17;;;;;;;;;;;;;;;20.55;55.93;101311.91;4100019;29;19930;-56
2023/07/30 08:34:21;;;;;;;;;;;;;;;20.57;56.22;101312.63;4100024;29;19923;-55
2023/07/30 08:36:22;;;;;;;;;;;;;;;20.57;56.33;101313.50;4100031;29;19926;-56
2023/07/30 08:38:24;;;;;;;;;;;;;;;20.57;56.49;101313.50;4099240;29;20064;-56
2023/07/30 08:40:26;;;;;;;;;;;;;;;20.57;56.39;101315.31;4099876;29;19927;-57
2023/07/30 08:42:28;;;;;;;;;;;;;;;20.57;55.97;101310.84;4099538;29;19969;-57
2023/07/30 08:44:29;;;;;;;;;;;;;;;20.56;56.37;101314.47;4099696;29;19985;-56
2023/07/30 08:46:31;;;;;;;;;;;;;;;20.57;56.27;101318.84;4099682;29;20008;-57
2023/07/30 08:48:32;;;;;;;;;;;;;;;20.53;55.91;101306.66;4098931;29;19941;-56
2023/07/30 08:50:34;;;;;;;;;;;;;;;20.56;56.03;101316.25;4099823;29;20283;-57
2023/07/30 08:52:36;;;;;;;;;;;;;;;20.55;55.77;101309.22;4099810;29;20071;-57
2023/07/30 08:54:39;;;;;;;;;;;;;;;20.53;56.10;101320.00;4099978;29;20321;-57
2023/07/30 08:56:41;;;;;;;;;;;;;;;20.54;56.02;101315.53;4099254;29;20302;-57
2023/07/30 08:58:44;;;;;;;;;;;;;;;20.55;56.29;101314.56;4099107;29;19922;-57
2023/07/30 09:00:46;;;;;;;;;;;;;;;20.54;56.10;101319.03;4099733;29;19946;-56
2023/07/30 09:02:48;;;;;;;;;;;;;;;20.55;56.09;101311.91;4099775;29;19923;-56
2023/07/30 09:04:52;;;;;;;;;;;;;;;20.55;56.06;101303.88;4099776;29;20334;-57
2023/07/30 09:06:54;;;;;;;;;;;;;;;20.53;55.79;101305.81;4099568;29;19926;-57
2023/07/30 09:08:56;;;;;;;;;;;;;;;20.53;55.92;101305.81;4098941;29;19923;-57
2023/07/30 09:11:05;;;;;;;;;;;;;;;20.54;55.88;101302.16;4082472;29;19923;-57
2023/07/30 09:13:07;;;;;;;;;;;;;;;20.53;55.95;101300.47;4099672;29;19966;-57
2023/07/30 09:15:09;;;;;;;;;;;;;;;20.54;55.74;101294.16;4099469;29;19923;-56
2023/07/30 09:17:16;;;;;;;;;;;;;;;20.55;55.62;101310.06;4099514;29;20365;-56
2023/07/30 09:19:17;;;;;;;;;;;;;;;20.55;55.93;101303.88;4098753;29;19935;-56
2023/07/30 09:21:19;;;;;;;;;;;;;;;20.52;55.59;101296.94;4099752;29;19922;-56
2023/07/30 09:23:21;;;;;;;;;;;;;;;20.52;55.27;101294.28;4098045;29;19922;-57
2023/07/30 09:25:22;;;;;;;;;;;;;;;20.52;55.78;101299.63;4099338;28;19931;-57
2023/07/30 09:27:26;;;;;;;;;;;;;;;20.53;55.62;101298.63;4099602;29;19923;-56
2023/07/30 09:29:27;;;;;;;;;;;;;;;20.56;55.49;101300.22;4098614;29;20013;-56
2023/07/30 09:31:29;;;;;;;;;;;;;;;20.57;55.62;101304.63;4099539;29;19929;-57
2023/07/30 09:33:32;;;;;;;;;;;;;;;20.57;55.84;101300.16;4099348;29;19923;-56
2023/07/30 09:35:34;;;;;;;;;;;;;;;20.59;55.99;101303.53;4099718;28;19980;-56
2023/07/30 09:37:37;;;;;;;;;;;;;;;20.62;55.79;101297.16;4102338;29;20239;-56
2023/07/30 09:39:39;;;;;;;;;;;;;;;20.62;55.31;101307.84;4101521;29;20305;-56
2023/07/30 09:41:44;;;;;;;;;;;;;;;20.62;55.30;101304.31;4102504;29;20429;-56
2023/07/30 09:43:45;;;;;;;;;;;;;;;20.61;54.97;101303.47;4102207;29;19969;-57
2023/07/30 09:45:47;;;;;;;;;;;;;;;20.59;54.53;101310.72;4102092;29;19961;-55
2023/07/30 09:47:49;;;;;;;;;;;;;;;20.61;55.31;101316.81;4102093;29;20010;-56
2023/07/30 09:49:52;;;;;;;;;;;;;;;20.59;55.74;101303.53;4101791;29;19922;-56
2023/07/30 09:51:54;;;;;;;;;;;;;;;20.58;55.16;101317.91;4102584;29;19957;-55
2023/07/30 09:53:56;;;;;;;;;;;;;;;20.58;55.20;101314.34;4101826;29;19922;-55
2023/07/30 09:55:57;;;;;;;;;;;;;;;20.57;55.20;101320.66;4102198;29;19973;-56
2023/07/30 09:57:59;;;;;;;;;;;;;;;20.58;54.85;101317.03;4101485;29;19923;-56
2023/07/30 10:00:02;;;;;;;;;;;;;;;20.58;55.64;101314.34;4102069;29;19922;-56
2023/07/30 10:02:05;;;;;;;;;;;;;;;20.59;55.22;101318.75;4102183;29;19960;-57
2023/07/30 10:04:10;;;;;;;;;;;;;;;20.58;55.61;101315.22;4101993;29;20012;-56
2023/07/30 10:06:12;;;;;;;;;;;;;;;20.57;55.01;101321.53;4101970;29;19922;-56
2023/07/30 10:08:24;;;;;;;;;;;;;;;20.56;54.81;101330.50;4101058;29;19923;-56
2023/07/30 10:10:28;;;;;;;;;;;;;;;20.55;55.15;101334.13;4101750;29;20420;-56
2023/07/30 10:12:31;;;;;;;;;;;;;;;20.55;55.18;101338.63;4102087;29;19922;-55
2023/07/30 10:14:32;;;;;;;;;;;;;;;20.56;55.03;101332.28;4101972;29;19923;-55
2023/07/30 10:16:34;;;;;;;;;;;;;;;20.57;55.00;101339.34;4101719;29;19922;-53
2023/07/30 10:18:40;;;;;;;;;;;;;;;20.58;54.60;101333.06;4101147;29;20282;-56
2023/07/30 10:20:45;;;;;;;;;;;;;;;20.59;54.50;101335.63;4101641;29;19922;-54
2023/07/30 10:22:50;;;;;;;;;;;;;;;20.62;54.15;101339.91;4101209;29;19922;-56
2023/07/30 10:24:57;;;;;;;;;;;;;;;20.63;54.57;101340.75;4101762;28;19922;-56